Time;durP1;ratioP1;P1;durP2;ratioP2;P2;SDS_P1;SDS_P2;PMS_P1;PMS_P2;Temp;Humidity;BMP_temperature;BMP_pressure;BME280_temperature;BME280_humidity;BME280_pressure;Samples;Min_cycle;Max_cycle;Signal;HPM_P1;HPM_P2
2021/09/28 00:00:27;;;;;;;0.70;0.70;;;;;;;12.90;81.70;96241.81;5074407;28;20206;-79
2021/09/28 00:02:53;;;;;;;1.43;1.23;;;;;;;12.82;81.96;96239.09;5057184;28;20209;-79
2021/09/28 00:05:18;;;;;;;1.13;0.80;;;;;;;12.75;82.68;96237.06;5072995;28;20205;-79
2021/09/28 00:07:43;;;;;;;2.20;0.80;;;;;;;12.68;83.10;96242.97;5073784;28;20621;-79
2021/09/28 00:10:09;;;;;;;0.83;0.70;;;;;;;12.63;83.56;96255.59;5074057;28;20189;-79
2021/09/28 00:12:34;;;;;;;3.60;0.80;;;;;;;12.62;83.92;96252.19;5073479;28;20182;-79
2021/09/28 00:14:59;;;;;;;0.70;0.70;;;;;;;12.69;83.78;96263.69;5057822;28;20170;-80
2021/09/28 00:17:25;;;;;;;2.60;1.10;;;;;;;12.66;83.05;96274.41;5057140;28;20190;-79
2021/09/28 00:19:50;;;;;;;1.27;0.53;;;;;;;12.71;81.90;96276.56;5073850;28;20186;-79
2021/09/28 00:22:15;;;;;;;1.67;0.60;;;;;;;12.69;82.03;96271.50;5073663;28;20211;-79
2021/09/28 00:24:40;;;;;;;1.23;0.57;;;;;;;12.61;81.99;96279.19;5072247;28;20209;-79
2021/09/28 00:27:06;;;;;;;1.57;0.50;;;;;;;12.57;81.94;96280.47;5056203;28;20209;-79
2021/09/28 00:29:31;;;;;;;0.87;0.60;;;;;;;12.48;81.81;96291.72;5057029;28;20233;-79
2021/09/28 00:31:57;;;;;;;1.23;0.70;;;;;;;12.41;81.77;96277.63;5056637;28;20181;-79
2021/09/28 00:34:22;;;;;;;0.60;0.50;;;;;;;12.51;82.19;96277.59;5039376;28;20552;-79
2021/09/28 00:36:47;;;;;;;0.90;0.70;;;;;;;12.40;82.22;96282.03;5066981;28;20205;-79
2021/09/28 00:39:12;;;;;;;0.87;0.60;;;;;;;12.25;83.62;96277.38;5076499;28;20199;-79
2021/09/28 00:41:39;;;;;;;1.10;0.80;;;;;;;12.38;83.56;96267.50;5075764;28;20173;-79
2021/09/28 00:44:04;;;;;;;1.23;0.70;;;;;;;12.48;83.50;96270.91;5075013;28;20226;-79
2021/09/28 00:46:30;;;;;;;2.10;0.80;;;;;;;12.50;83.52;96273.34;5092462;28;20300;-79
2021/09/28 00:48:55;;;;;;;2.20;0.90;;;;;;;12.37;83.74;96269.28;5092578;28;20173;-79
2021/09/28 00:51:21;;;;;;;1.53;0.50;;;;;;;12.32;83.47;96271.47;5075795;28;20181;-79
2021/09/28 00:53:49;;;;;;;1.20;1.10;;;;;;;12.30;84.48;96269.97;5055344;28;20268;-79
2021/09/28 00:56:16;;;;;;;2.00;0.77;;;;;;;12.22;84.39;96280.28;5054386;28;20201;-79
2021/09/28 00:58:42;;;;;;;1.47;1.00;;;;;;;12.22;83.87;96281.09;5057003;28;20166;-79
2021/09/28 01:01:08;;;;;;;3.13;0.90;;;;;;;12.23;83.64;96279.31;5057264;28;20173;-79
2021/09/28 01:03:34;;;;;;;1.20;0.90;;;;;;;12.21;82.82;96273.44;5071874;28;20178;-79
2021/09/28 01:06:00;;;;;;;1.10;0.90;;;;;;;12.22;83.21;96272.47;5072197;28;20193;-79
2021/09/28 01:08:26;;;;;;;1.10;0.90;;;;;;;12.21;82.92;96281.25;5072118;28;20228;-79
2021/09/28 01:10:52;;;;;;;2.03;1.17;;;;;;;12.25;83.05;96287.81;5055642;28;20246;-79
2021/09/28 01:13:17;;;;;;;2.73;1.00;;;;;;;12.23;82.41;96276.72;5054788;28;20236;-79
2021/09/28 01:15:58;;;;;;;3.17;1.07;;;;;;;12.19;82.99;96276.16;5054628;28;20228;-79
2021/09/28 01:18:25;;;;;;;2.07;0.90;;;;;;;12.24;82.61;96291.38;5056256;28;20252;-79
2021/09/28 01:20:50;;;;;;;2.80;0.90;;;;;;;12.25;82.19;96293.00;5055292;28;20654;-79
2021/09/28 01:23:16;;;;;;;2.97;1.00;;;;;;;12.30;81.72;96301.25;5056167;28;20227;-79
2021/09/28 01:25:41;;;;;;;2.23;1.40;;;;;;;12.20;81.90;96298.66;5055981;28;20205;-79
2021/09/28 01:28:07;;;;;;;3.93;1.20;;;;;;;12.24;81.73;96301.78;5056269;28;20705;-79
2021/09/28 01:30:33;;;;;;;5.47;1.87;;;;;;;12.21;81.40;96307.28;5056828;28;20923;-79
2021/09/28 01:32:58;;;;;;;7.60;2.00;;;;;;;12.21;81.25;96307.28;5055061;28;20182;-79
2021/09/28 01:35:23;;;;;;;3.77;1.40;;;;;;;12.25;81.33;96303.41;5055190;28;20231;-79
2021/09/28 01:37:49;;;;;;;6.47;2.57;;;;;;;12.25;80.82;96308.63;5072101;28;20208;-79
2021/09/28 01:40:14;;;;;;;5.17;1.83;;;;;;;12.28;80.42;96313.56;5055465;28;20185;-79
2021/09/28 01:42:39;;;;;;;3.57;1.30;;;;;;;12.28;80.77;96303.13;5055366;28;20600;-79
2021/09/28 01:45:05;;;;;;;2.63;1.20;;;;;;;12.29;80.51;96310.00;5054167;28;20704;-79
2021/09/28 01:47:30;;;;;;;2.27;1.17;;;;;;;12.20;79.36;96306.47;5054640;28;20209;-79
2021/09/28 01:49:56;;;;;;;2.17;1.20;;;;;;;12.23;79.20;96313.16;5054727;28;20205;-79
2021/09/28 01:52:21;;;;;;;3.33;1.23;;;;;;;12.23;80.04;96323.59;5054865;28;20622;-79
2021/09/28 01:54:46;;;;;;;1.73;1.23;;;;;;;12.25;79.29;96327.69;5055879;28;20634;-79
2021/09/28 01:57:11;;;;;;;5.20;1.00;;;;;;;12.23;79.66;96324.41;5071197;28;20208;-79
2021/09/28 01:59:37;;;;;;;3.10;0.93;;;;;;;12.17;79.51;96317.94;5056312;28;20193;-79
2021/09/28 02:02:02;;;;;;;4.80;1.20;;;;;;;12.10;79.78;96310.81;5056290;28;20182;-79
2021/09/28 02:04:28;;;;;;;3.17;1.30;;;;;;;12.05;79.75;96311.25;5053789;28;20197;-79
2021/09/28 02:06:53;;;;;;;5.87;1.97;;;;;;;12.01;80.45;96317.69;5054402;28;20288;-79
2021/09/28 02:09:18;;;;;;;2.50;1.27;;;;;;;12.00;80.73;96316.03;5053800;28;20209;-79
2021/09/28 02:11:44;;;;;;;5.73;1.40;;;;;;;11.99;80.55;96314.41;5052723;28;20215;-79
2021/09/28 02:14:09;;;;;;;2.33;1.20;;;;;;;12.01;80.07;96307.28;5054120;28;20185;-79
2021/09/28 02:16:35;;;;;;;2.93;1.13;;;;;;;11.94;80.23;96311.41;5054056;28;20695;-79
2021/09/28 02:19:00;;;;;;;6.13;1.60;;;;;;;11.93;79.80;96309.78;5071092;28;20267;-79
2021/09/28 02:21:26;;;;;;;6.07;1.47;;;;;;;11.93;80.64;96312.38;5054188;28;20193;-79
2021/09/28 02:23:51;;;;;;;4.40;1.23;;;;;;;11.93;80.94;96312.38;5053414;28;20197;-79
2021/09/28 02:26:16;;;;;;;2.83;1.30;;;;;;;11.90;81.44;96310.03;5070812;28;20217;-79
2021/09/28 02:28:42;;;;;;;5.13;1.20;;;;;;;11.89;81.29;96309.19;5055985;28;20197;-79
2021/09/28 02:31:07;;;;;;;5.13;2.00;;;;;;;11.88;81.44;96317.97;5071669;28;20182;-79
2021/09/28 02:33:33;;;;;;;5.63;2.00;;;;;;;11.85;81.67;96325.25;5053171;28;20615;-79
2021/09/28 02:35:58;;;;;;;4.43;1.50;;;;;;;11.88;81.78;96314.56;5053297;28;20181;-79
2021/09/28 02:38:23;;;;;;;6.77;1.40;;;;;;;11.80;82.45;96314.41;5070257;28;20186;-79
2021/09/28 02:40:48;;;;;;;2.97;1.43;;;;;;;11.74;82.39;96327.91;5070746;28;20264;-79
2021/09/28 02:43:14;;;;;;;2.53;1.33;;;;;;;11.71;82.83;96323.81;5055141;28;20544;-79
2021/09/28 02:45:40;;;;;;;5.47;1.77;;;;;;;11.69;83.03;96325.75;5054320;28;20210;-79
2021/09/28 02:48:06;;;;;;;3.60;1.50;;;;;;;11.65;83.04;96321.75;5052914;28;20206;-79
2021/09/28 02:50:33;;;;;;;3.57;1.27;;;;;;;11.63;83.23;96321.06;5070161;28;20182;-79
2021/09/28 02:52:59;;;;;;;2.77;1.50;;;;;;;11.69;83.05;96319.72;5069971;28;20178;-79
2021/09/28 02:55:25;;;;;;;4.27;1.40;;;;;;;11.63;82.96;96316.69;5052892;28;20169;-79
2021/09/28 02:57:50;;;;;;;5.70;1.77;;;;;;;11.56;83.32;96312.97;5054150;28;20561;-79
2021/09/28 03:00:16;;;;;;;3.23;1.30;;;;;;;11.52;83.63;96321.19;5053986;28;20178;-79
2021/09/28 03:02:41;;;;;;;8.87;1.97;;;;;;;11.46;83.73;96317.34;5070482;28;20181;-79
2021/09/28 03:05:06;;;;;;;5.03;1.50;;;;;;;11.50;83.46;96316.13;5069847;28;20209;-79
2021/09/28 03:07:32;;;;;;;6.40;1.40;;;;;;;11.47;83.42;96324.19;5053471;28;20217;-79
2021/09/28 03:09:57;;;;;;;6.40;1.63;;;;;;;11.42;83.75;96318.59;5053096;28;20641;-79
2021/09/28 03:12:22;;;;;;;6.60;1.43;;;;;;;11.46;83.78;96314.75;5053929;28;20652;-79
2021/09/28 03:14:48;;;;;;;5.57;1.60;;;;;;;11.44;84.01;96319.25;5069665;28;20184;-79
2021/09/28 03:17:13;;;;;;;2.97;1.37;;;;;;;11.40;83.77;96315.31;5054068;28;20205;-79
2021/09/28 03:19:38;;;;;;;4.80;1.57;;;;;;;11.31;83.77;96314.31;5053666;28;20637;-79
2021/09/28 03:22:04;;;;;;;3.47;1.93;;;;;;;11.30;84.36;96319.63;5054723;28;20240;-79
2021/09/28 03:24:29;;;;;;;3.70;1.70;;;;;;;11.27;84.88;96317.31;5052618;28;20226;-79
2021/09/28 03:26:54;;;;;;;3.40;1.90;;;;;;;11.23;84.59;96326.34;5053872;28;20212;-79
2021/09/28 03:29:19;;;;;;;5.90;1.53;;;;;;;11.14;85.03;96329.72;5053893;28;20178;-79
2021/09/28 03:31:45;;;;;;;3.43;1.80;;;;;;;11.16;84.93;96328.63;5054440;28;20174;-79
2021/09/28 03:34:10;;;;;;;3.67;1.63;;;;;;;11.13;84.97;96325.47;5053355;28;20182;-79
2021/09/28 03:36:35;;;;;;;8.27;1.90;;;;;;;11.14;84.77;96320.16;5054002;28;20190;-79
2021/09/28 03:39:01;;;;;;;10.63;2.90;;;;;;;11.11;84.88;96325.59;5055044;28;20182;-79
2021/09/28 03:41:26;;;;;;;6.00;2.00;;;;;;;11.15;84.75;96323.56;5054909;28;20188;-79
2021/09/28 03:43:51;;;;;;;5.70;2.10;;;;;;;11.16;84.57;96326.03;5054349;28;20177;-79
2021/09/28 03:46:17;;;;;;;7.30;1.97;;;;;;;11.12;84.43;96323.81;5053856;28;20194;-79
2021/09/28 03:48:42;;;;;;;6.87;2.30;;;;;;;11.08;84.09;96323.28;5053092;28;20174;-79
2021/09/28 03:51:08;;;;;;;4.40;2.03;;;;;;;11.06;84.18;96328.59;5053327;28;20303;-79
2021/09/28 03:53:33;;;;;;;5.87;2.13;;;;;;;11.00;84.06;96328.31;5052818;28;20201;-79
2021/09/28 03:55:59;;;;;;;5.97;2.07;;;;;;;10.99;84.21;96329.25;5054148;28;20178;-79
2021/09/28 03:58:24;;;;;;;6.50;2.57;;;;;;;10.95;84.81;96333.88;5054760;28;20186;-79
2021/09/28 04:00:49;;;;;;;7.97;2.30;;;;;;;10.88;84.43;96330.19;5053029;28;20660;-79
2021/09/28 04:03:14;;;;;;;7.87;2.07;;;;;;;10.85;84.58;96324.41;5052272;28;20679;-79
2021/09/28 04:05:40;;;;;;;4.73;2.20;;;;;;;10.78;84.72;96329.31;5052190;28;20202;-79
2021/09/28 04:08:06;;;;;;;4.50;2.37;;;;;;;10.79;84.72;96330.97;5052738;28;20210;-80
2021/09/28 04:10:35;;;;;;;5.57;2.50;;;;;;;10.76;84.26;96336.41;5070346;28;20178;-79
2021/09/28 04:13:00;;;;;;;6.83;2.20;;;;;;;10.68;84.58;96334.44;5065184;28;20620;-79
2021/09/28 04:15:25;;;;;;;6.63;2.60;;;;;;;10.66;84.49;96328.56;5070983;28;20382;-79
2021/09/28 04:17:52;;;;;;;5.30;2.30;;;;;;;10.67;84.54;96326.78;5069764;28;20691;-79
2021/09/28 04:20:17;;;;;;;4.63;2.43;;;;;;;10.59;84.48;96322.22;5053877;28;20181;-80
2021/09/28 04:22:43;;;;;;;7.30;2.43;;;;;;;10.60;84.40;96323.03;5070721;28;20173;-79
2021/09/28 04:25:10;;;;;;;6.07;2.60;;;;;;;10.63;84.23;96320.22;5069304;28;20209;-81
2021/09/28 04:27:36;;;;;;;6.33;2.50;;;;;;;10.53;84.48;96327.13;5088193;28;20220;-79
2021/09/28 04:30:03;;;;;;;4.67;2.50;;;;;;;10.50;84.50;96336.81;5071127;28;20173;-78
2021/09/28 04:32:28;;;;;;;5.63;2.20;;;;;;;10.46;84.22;96330.22;5072887;28;20181;-79
2021/09/28 04:34:53;;;;;;;8.17;2.50;;;;;;;10.45;84.39;96328.59;5075992;28;20173;-78
2021/09/28 04:37:19;;;;;;;5.77;2.37;;;;;;;10.40;84.49;96328.13;5074447;28;20197;-78
2021/09/28 04:39:44;;;;;;;7.60;2.63;;;;;;;10.33;84.79;96344.34;5073721;28;20510;-79
2021/09/28 04:42:10;;;;;;;5.53;2.30;;;;;;;10.28;84.56;96333.53;5075305;28;20192;-78
2021/09/28 04:44:36;;;;;;;9.60;2.80;;;;;;;10.27;84.25;96343.09;5073834;28;20201;-78
2021/09/28 04:47:01;;;;;;;4.97;2.20;;;;;;;10.22;84.07;96337.44;5057693;28;20264;-79
2021/09/28 04:49:26;;;;;;;4.43;2.40;;;;;;;10.07;84.19;96338.66;5075144;28;20268;-79
2021/09/28 04:51:52;;;;;;;3.67;2.17;;;;;;;10.05;83.72;96341.38;5073852;28;20188;-78
2021/09/28 04:54:17;;;;;;;7.30;2.33;;;;;;;10.03;83.22;96335.50;5056145;28;20223;-78
2021/09/28 04:56:42;;;;;;;5.07;2.37;;;;;;;9.89;84.13;96333.19;5057103;28;20266;-78
2021/09/28 04:59:08;;;;;;;3.50;1.97;;;;;;;9.86;84.16;96336.88;5074188;28;20204;-78
2021/09/28 05:01:33;;;;;;;6.47;2.23;;;;;;;9.82;84.03;96340.66;5075423;28;20542;-78
2021/09/28 05:03:58;;;;;;;7.27;2.20;;;;;;;9.80;83.96;96347.72;5056466;28;20182;-79
2021/09/28 05:06:24;;;;;;;13.03;2.60;;;;;;;9.79;83.89;96342.66;5073807;28;20286;-79
2021/09/28 05:08:51;;;;;;;6.53;2.87;;;;;;;9.72;83.88;96344.94;5072902;28;20702;-78
2021/09/28 05:11:16;;;;;;;5.13;2.20;;;;;;;9.71;83.67;96342.44;5072742;28;20280;-78
2021/09/28 05:13:41;;;;;;;9.43;2.27;;;;;;;9.71;83.59;96345.06;5073453;28;20184;-78
2021/09/28 05:16:07;;;;;;;4.87;2.03;;;;;;;9.73;83.63;96351.78;5057592;28;20236;-78
2021/09/28 05:18:33;;;;;;;5.20;2.13;;;;;;;9.72;83.06;96344.94;5076175;28;20177;-79
2021/09/28 05:20:59;;;;;;;7.37;1.90;;;;;;;9.70;82.94;96346.00;5075628;28;20625;-80
2021/09/28 05:23:24;;;;;;;5.37;2.67;;;;;;;9.68;83.10;96348.72;5090083;28;20181;-80
2021/09/28 05:25:50;;;;;;;5.00;2.50;;;;;;;9.69;82.88;96349.53;5073500;28;20279;-79
2021/09/28 05:28:15;;;;;;;3.73;2.10;;;;;;;9.54;83.60;96344.66;5074274;28;20641;-79
2021/09/28 05:30:44;;;;;;;5.47;2.23;;;;;;;9.39;83.70;96342.44;5057711;28;20189;-79
2021/09/28 05:33:09;;;;;;;4.87;2.13;;;;;;;9.39;83.71;96351.03;5057275;28;20268;-79
2021/09/28 05:35:34;;;;;;;5.60;2.30;;;;;;;9.32;84.08;96344.69;5055985;28;20204;-79
2021/09/28 05:38:00;;;;;;;5.57;1.97;;;;;;;9.30;84.36;96344.81;5056959;28;20213;-79
2021/09/28 05:40:25;;;;;;;5.43;2.53;;;;;;;9.25;84.22;96352.09;5074317;28;20206;-79
2021/09/28 05:42:50;;;;;;;6.97;2.23;;;;;;;9.31;84.00;96345.63;5073557;28;20185;-80
2021/09/28 05:45:16;;;;;;;2.67;1.63;;;;;;;9.30;83.86;96354.34;5056378;28;20205;-78
2021/09/28 05:47:41;;;;;;;3.97;1.97;;;;;;;9.33;83.78;96359.28;5073865;28;20212;-80
2021/09/28 05:50:07;;;;;;;6.93;1.93;;;;;;;9.29;83.41;96360.47;5073866;28;20177;-79
2021/09/28 05:52:32;;;;;;;5.10;1.63;;;;;;;9.42;83.53;96357.75;5073982;28;20177;-79
2021/09/28 05:55:01;;;;;;;7.23;2.53;;;;;;;9.40;83.53;96360.47;5056664;28;20538;-79
2021/09/28 05:57:26;;;;;;;4.80;2.17;;;;;;;9.42;84.03;96361.16;5057388;28;20203;-78
2021/09/28 05:59:51;;;;;;;4.27;2.20;;;;;;;9.48;84.00;96359.84;5074213;28;20260;-80
2021/09/28 06:02:20;;;;;;;4.00;2.10;;;;;;;9.66;83.42;96366.19;5057913;28;20291;-79
2021/09/28 06:04:46;;;;;;;4.50;2.10;;;;;;;9.78;82.58;96361.78;5089329;28;20223;-77
2021/09/28 06:07:14;;;;;;;5.83;2.00;;;;;;;9.98;82.37;96357.56;5068586;28;20220;-79
2021/09/28 06:09:40;;;;;;;5.20;2.93;;;;;;;10.05;82.07;96367.34;5060459;28;20268;-80
2021/09/28 06:12:08;;;;;;;4.70;2.70;;;;;;;10.26;82.13;96369.19;5074847;28;20184;-79
2021/09/28 06:14:34;;;;;;;8.70;3.20;;;;;;;10.44;81.14;96365.06;5073795;28;20185;-79
2021/09/28 06:17:00;;;;;;;5.87;2.80;;;;;;;10.50;81.50;96362.78;5056605;28;20197;-79
2021/09/28 06:19:27;;;;;;;5.30;3.10;;;;;;;10.68;81.14;96364.78;5058214;28;20604;-80
2021/09/28 06:21:53;;;;;;;6.20;3.53;;;;;;;10.85;80.70;96364.19;5057884;28;20273;-79
2021/09/28 06:24:19;;;;;;;6.17;2.93;;;;;;;10.95;80.54;96359.88;5073102;28;20730;-79
2021/09/28 06:26:45;;;;;;;6.20;2.93;;;;;;;11.03;79.64;96360.03;5073548;28;20217;-79
2021/09/28 06:29:11;;;;;;;8.37;2.90;;;;;;;11.10;79.62;96356.94;5072792;28;20190;-79
2021/09/28 06:31:37;;;;;;;13.77;3.10;;;;;;;11.16;79.34;96356.41;5064987;28;20181;-78
2021/09/28 06:34:02;;;;;;;7.53;2.70;;;;;;;11.29;79.06;96360.41;5052296;28;20209;-80
2021/09/28 06:36:27;;;;;;;5.93;2.70;;;;;;;11.29;78.71;96354.38;5052513;28;20205;-79
2021/09/28 06:38:53;;;;;;;7.33;2.93;;;;;;;11.36;78.67;96360.72;5068961;28;20186;-78
2021/09/28 06:41:19;;;;;;;9.30;2.60;;;;;;;11.47;78.19;96355.41;5052278;28;20228;-79
2021/09/28 06:43:44;;;;;;;3.83;2.37;;;;;;;11.49;77.65;96358.72;5073321;28;20181;-79
2021/09/28 06:46:10;;;;;;;5.13;2.13;;;;;;;11.54;77.52;96353.91;5062259;28;20213;-79
2021/09/28 06:48:35;;;;;;;2.93;1.70;;;;;;;11.59;76.78;96354.34;5069687;28;20182;-78
2021/09/28 06:51:00;;;;;;;6.40;2.20;;;;;;;11.62;76.29;96351.47;5051242;28;20174;-79
2021/09/28 06:53:26;;;;;;;6.70;2.30;;;;;;;11.67;75.74;96358.88;5052492;28;20185;-79
2021/09/28 06:55:51;;;;;;;5.37;2.03;;;;;;;11.70;75.68;96361.19;5050156;28;20193;-78
2021/09/28 06:58:16;;;;;;;4.13;1.77;;;;;;;11.78;75.33;96352.72;5067865;28;20182;-79
2021/09/28 07:00:42;;;;;;;4.23;2.00;;;;;;;11.75;75.38;96347.78;5051109;28;20213;-79
2021/09/28 07:03:08;;;;;;;4.73;2.20;;;;;;;11.75;74.36;96340.81;5050729;28;20251;-79
2021/09/28 07:05:34;;;;;;;5.90;3.37;;;;;;;11.89;74.81;96352.63;5051263;28;20681;-78
2021/09/28 07:07:59;;;;;;;6.47;1.90;;;;;;;11.78;74.72;96350.13;5034487;28;20205;-79
2021/09/28 07:10:24;;;;;;;12.37;2.17;;;;;;;11.77;74.54;96346.69;5067452;28;20185;-78
2021/09/28 07:12:49;;;;;;;6.20;2.47;;;;;;;11.76;74.54;96352.03;5067273;28;20665;-79
2021/09/28 07:15:16;;;;;;;3.43;1.90;;;;;;;11.84;74.40;96345.25;5051214;28;20182;-77
2021/09/28 07:17:45;;;;;;;3.97;2.00;;;;;;;12.03;74.26;96356.63;5054151;28;20198;-77
2021/09/28 07:20:11;;;;;;;5.43;2.20;;;;;;;12.00;74.14;96360.28;5071098;28;20600;-78
2021/09/28 07:22:36;;;;;;;4.43;1.80;;;;;;;12.09;73.44;96356.88;5070919;28;20220;-77
2021/09/28 07:25:02;;;;;;;3.90;2.00;;;;;;;12.23;73.24;96355.66;5073486;28;20209;-77
2021/09/28 07:27:27;;;;;;;6.70;2.23;;;;;;;12.40;72.23;96357.56;5074496;28;20243;-78
2021/09/28 07:29:52;;;;;;;4.07;1.97;;;;;;;12.34;71.25;96358.09;5057917;28;20601;-78
2021/09/28 07:32:20;;;;;;;6.50;1.80;;;;;;;12.31;72.49;96365.38;5075577;28;20279;-77
2021/09/28 07:34:46;;;;;;;5.97;1.80;;;;;;;12.33;72.53;96355.63;5057614;28;20245;-78
2021/09/28 07:37:11;;;;;;;7.83;2.37;;;;;;;12.40;72.43;96356.72;5075730;28;20231;-78
2021/09/28 07:39:36;;;;;;;6.20;1.97;;;;;;;12.38;72.48;96353.44;5074606;28;20252;-78
2021/09/28 07:42:02;;;;;;;3.43;2.00;;;;;;;12.36;73.35;96355.34;5073627;28;20177;-78
2021/09/28 07:44:27;;;;;;;3.90;1.53;;;;;;;12.52;73.25;96360.81;5073947;28;20700;-78
2021/09/28 07:46:52;;;;;;;6.57;1.97;;;;;;;12.66;73.00;96362.19;5074401;28;20193;-78
2021/09/28 07:49:18;;;;;;;6.97;1.90;;;;;;;12.64;72.72;96364.94;5074187;28;20181;-78
2021/09/28 07:51:43;;;;;;;5.33;2.03;;;;;;;12.63;72.39;96352.88;5073163;28;20258;-78
2021/09/28 07:54:08;;;;;;;6.63;2.73;;;;;;;12.55;72.28;96359.75;5076186;28;20236;-77
2021/09/28 07:56:34;;;;;;;5.63;1.83;;;;;;;12.46;72.02;96358.78;5088632;28;20227;-77
2021/09/28 07:58:59;;;;;;;7.93;1.83;;;;;;;12.41;71.72;96353.16;5111838;28;20204;-79
2021/09/28 08:01:25;;;;;;;5.43;1.80;;;;;;;12.40;71.23;96354.13;5057642;28;20186;-79
2021/09/28 08:03:50;;;;;;;6.60;1.70;;;;;;;12.39;71.32;96355.91;5069127;28;20224;-79
2021/09/28 08:06:15;;;;;;;3.60;1.80;;;;;;;12.47;71.47;96358.66;5053507;28;20220;-79
2021/09/28 08:08:41;;;;;;;3.93;2.17;;;;;;;12.50;71.20;96356.72;5056164;28;20178;-79
2021/09/28 08:11:07;;;;;;;7.03;1.80;;;;;;;12.73;70.60;96358.06;5056553;28;20526;-79
2021/09/28 08:13:32;;;;;;;7.80;2.00;;;;;;;12.69;71.02;96357.50;5056158;28;20269;-79
2021/09/28 08:15:58;;;;;;;6.07;1.83;;;;;;;12.61;70.17;96367.78;5056848;28;20259;-79
2021/09/28 08:18:23;;;;;;;6.10;2.30;;;;;;;12.68;70.47;96361.06;5073254;28;20303;-78
2021/09/28 08:20:49;;;;;;;5.00;1.97;;;;;;;12.61;70.73;96359.97;5058145;28;20182;-78
2021/09/28 08:23:16;;;;;;;5.93;1.77;;;;;;;12.43;72.41;96357.25;5058280;28;20264;-79
2021/09/28 08:31:05;;;;;;;6.37;1.90;;;;;;;12.62;70.99;96359.00;5057886;28;20268;-78
2021/09/28 08:33:32;;;;;;;5.13;2.30;;;;;;;12.73;70.77;96353.66;5073745;28;20214;-79
2021/09/28 08:35:58;;;;;;;6.27;1.73;;;;;;;12.89;70.22;96347.00;5056665;28;20176;-78
2021/09/28 08:38:24;;;;;;;7.17;1.57;;;;;;;12.92;68.40;96349.34;5073096;28;20327;-78
2021/09/28 08:40:50;;;;;;;6.13;1.90;;;;;;;13.04;68.33;96354.22;5072909;28;20184;-78
2021/09/28 08:43:15;;;;;;;9.97;2.07;;;;;;;12.84;68.04;96354.44;5072822;28;20256;-78
2021/09/28 08:45:42;;;;;;;6.10;2.00;;;;;;;12.84;68.38;96355.28;5072895;28;20209;-79
2021/09/28 08:48:10;;;;;;;5.37;1.90;;;;;;;12.85;69.04;96356.09;5073378;28;20202;-79
2021/09/28 08:50:38;;;;;;;10.00;2.33;;;;;;;13.05;68.77;96363.69;5055859;28;20204;-78
2021/09/28 08:53:03;;;;;;;7.47;2.40;;;;;;;13.08;67.92;96354.78;5056269;28;20178;-79
2021/09/28 08:55:29;;;;;;;4.50;1.83;;;;;;;13.28;67.29;96356.38;5072008;28;20695;-78
2021/09/28 08:58:20;;;;;;;9.33;1.87;;;;;;;13.25;66.40;96361.88;5072817;28;20236;-79
2021/09/28 09:00:47;;;;;;;5.37;1.83;;;;;;;13.14;66.90;96355.97;5039391;28;20178;-79
2021/09/28 09:03:28;;;;;;;5.87;1.40;;;;;;;13.33;66.00;96359.34;5072191;28;20188;-78
2021/09/28 09:05:55;;;;;;;6.03;1.43;;;;;;;13.67;65.25;96363.97;5055785;28;20204;-78
2021/09/28 09:08:25;;;;;;;5.73;1.70;;;;;;;13.73;64.46;96355.56;5054592;28;20209;-78
2021/09/28 09:11:11;;;;;;;6.03;1.83;;;;;;;13.53;64.35;96356.66;5052734;28;20229;-78
2021/09/28 09:13:42;;;;;;;4.50;1.63;;;;;;;13.84;63.91;96364.97;5054271;28;20672;-78
2021/09/28 09:16:13;;;;;;;5.77;1.87;;;;;;;13.41;63.49;96357.81;5054981;28;20202;-78
2021/09/28 09:18:38;;;;;;;4.67;1.83;;;;;;;13.86;62.77;96360.41;5054777;28;20273;-78
2021/09/28 09:21:05;;;;;;;6.93;1.70;;;;;;;14.33;61.89;96363.66;5071905;28;20213;-78
2021/09/28 09:23:35;;;;;;;5.70;1.53;;;;;;;14.56;60.94;96360.56;5036917;28;20586;-78
2021/09/28 09:26:17;;;;;;;4.73;1.60;;;;;;;14.87;62.16;96355.72;5053974;28;20285;-78
2021/09/28 09:28:44;;;;;;;5.87;1.50;;;;;;;15.26;59.64;96350.84;5055517;28;20261;-79
2021/09/28 09:31:21;;;;;;;3.40;1.20;;;;;;;15.10;55.48;96345.53;5053806;28;20221;-79
2021/09/28 09:33:46;;;;;;;5.20;1.33;;;;;;;15.02;57.15;96341.94;5069278;28;20182;-79
2021/09/28 09:36:17;;;;;;;4.07;1.20;;;;;;;15.08;56.55;96339.66;5055301;28;20746;-79
2021/09/28 09:38:51;;;;;;;5.73;2.00;;;;;;;14.96;58.24;96342.53;5037321;28;20178;-79
2021/09/28 09:41:16;;;;;;;4.23;1.50;;;;;;;14.83;58.58;96351.75;5070887;28;20264;-79
2021/09/28 09:43:43;;;;;;;5.63;1.60;;;;;;;14.86;58.38;96341.03;5053506;28;20197;-79
2021/09/28 09:46:19;;;;;;;3.10;1.43;;;;;;;15.33;57.90;96343.19;5053710;28;20233;-79
2021/09/28 09:48:47;;;;;;;5.00;1.60;;;;;;;15.43;57.17;96330.81;5070296;28;20177;-79
2021/09/28 09:51:15;;;;;;;5.77;2.20;;;;;;;15.57;56.48;96338.88;5054296;28;20606;-79
2021/09/28 09:53:55;;;;;;;3.70;1.80;;;;;;;15.30;58.29;96349.56;5071439;28;20201;-79
2021/09/28 09:56:21;;;;;;;4.90;2.30;;;;;;;15.19;58.87;96336.75;5053606;28;20186;-79
2021/09/28 09:58:47;;;;;;;5.93;1.90;;;;;;;15.31;58.47;96327.66;5054622;28;20254;-79
2021/09/28 10:01:13;;;;;;;4.53;1.70;;;;;;;14.60;59.33;96320.91;5053794;28;20170;-79
2021/09/28 10:03:40;;;;;;;5.27;1.80;;;;;;;14.56;59.97;96323.97;5069066;28;20173;-79
2021/09/28 10:06:06;;;;;;;6.17;1.70;;;;;;;14.78;58.94;96322.66;5057069;28;20235;-78
2021/09/28 10:08:31;;;;;;;6.23;1.87;;;;;;;14.46;58.79;96321.47;5069773;28;20177;-78
2021/09/28 10:10:57;;;;;;;4.93;1.80;;;;;;;14.21;59.16;96317.81;5069149;28;20170;-78
2021/09/28 10:13:52;;;;;;;4.03;1.90;;;;;;;14.19;59.64;96317.16;5056164;28;20554;-78
2021/09/28 10:16:31;;;;;;;5.40;1.80;;;;;;;14.60;58.86;96307.03;5070041;28;20201;-78
2021/09/28 10:18:56;;;;;;;5.57;1.77;;;;;;;14.40;58.82;96304.59;5070530;28;20200;-79
2021/09/28 10:21:35;;;;;;;3.60;1.57;;;;;;;14.22;58.70;96311.59;5053557;28;20181;-78
2021/09/28 10:24:27;;;;;;;5.23;1.70;;;;;;;14.52;58.63;96306.97;5053672;28;20212;-80
2021/09/28 10:26:55;;;;;;;6.90;1.60;;;;;;;14.47;58.06;96298.75;5070279;28;20193;-79
2021/09/28 10:29:41;;;;;;;5.53;1.93;;;;;;;14.37;58.69;96299.66;5051885;28;20186;-78
2021/09/28 10:32:44;;;;;;;5.43;1.53;;;;;;;14.43;58.73;96282.56;5053181;28;20174;-78
2021/09/28 10:35:12;;;;;;;7.07;1.63;;;;;;;14.41;58.54;96289.72;5035788;28;20304;-78
2021/09/28 10:37:50;;;;;;;6.47;1.50;;;;;;;14.38;57.89;96283.00;5054221;28;20297;-79
2021/09/28 10:40:15;;;;;;;6.20;1.40;;;;;;;14.77;59.87;96274.78;5054690;28;20177;-79
2021/09/28 10:42:55;;;;;;;4.93;1.50;;;;;;;14.72;57.75;96271.81;5052876;28;20529;-78
2021/09/28 10:45:21;;;;;;;3.70;1.40;;;;;;;14.66;56.67;96272.41;5035222;28;20202;-78
2021/09/28 10:47:50;;;;;;;3.67;1.50;;;;;;;14.70;57.16;96271.16;5069468;28;20281;-78
2021/09/28 10:50:22;;;;;;;3.43;1.40;;;;;;;15.12;56.91;96265.13;5052427;28;20665;-78
2021/09/28 10:52:47;;;;;;;4.47;1.50;;;;;;;15.29;56.25;96264.22;5036611;28;20177;-78
2021/09/28 10:55:12;;;;;;;3.42;1.63;;;;;;;15.29;55.00;96264.22;5052451;28;20193;-78
2021/09/28 10:57:58;;;;;;;2.30;1.50;;;;;;;15.34;54.97;96267.16;5053951;28;20197;-79
2021/09/28 11:00:25;;;;;;;3.30;1.57;;;;;;;14.71;56.76;96259.72;5053741;28;20177;-78
2021/09/28 11:02:55;;;;;;;3.33;1.63;;;;;;;15.18;56.66;96259.25;5052353;28;20223;-78
2021/09/28 11:05:32;;;;;;;4.13;1.60;;;;;;;15.04;55.60;96259.88;5068611;28;20239;-78
2021/09/28 11:07:59;;;;;;;2.78;1.50;;;;;;;15.08;54.98;96266.41;5054372;28;20193;-78
2021/09/28 11:10:25;;;;;;;2.60;1.53;;;;;;;15.15;55.04;96263.00;5051667;28;20182;-79
2021/09/28 11:12:50;;;;;;;2.17;1.33;;;;;;;15.13;55.19;96264.16;5068839;28;20185;-78
2021/09/28 11:15:26;;;;;;;5.00;1.87;;;;;;;14.90;55.18;96262.09;5051469;28;20219;-79
2021/09/28 11:17:52;;;;;;;2.37;1.63;;;;;;;14.68;55.54;96257.41;5069041;28;20197;-78
2021/09/28 11:20:24;;;;;;;3.50;1.43;;;;;;;14.93;54.91;96250.47;5052207;28;20184;-78
2021/09/28 11:22:56;;;;;;;3.67;1.13;;;;;;;15.21;52.37;96253.72;5053388;28;20166;-78
2021/09/28 11:25:22;;;;;;;4.17;1.30;;;;;;;15.37;53.81;96250.31;5067899;28;20240;-79
2021/09/28 11:28:02;;;;;;;3.27;1.50;;;;;;;15.26;53.51;96251.41;5068259;28;20225;-78
2021/09/28 11:30:28;;;;;;;3.28;1.30;;;;;;;15.53;52.96;96250.34;5053579;28;20178;-78
2021/09/28 11:33:20;;;;;;;4.23;1.53;;;;;;;15.48;52.88;96242.97;5069065;28;20174;-78
2021/09/28 11:35:56;;;;;;;3.20;1.50;;;;;;;15.49;53.34;96243.81;5052427;28;20189;-79
2021/09/28 11:38:36;;;;;;;2.92;1.35;;;;;;;15.93;51.46;96247.00;5052022;28;20177;-78